sensor_id;sensor_type;location;lat;lon;timestamp;pressure;altitude;pressure_sealevel;temperature;humidity
47636;BME280;33364;50.766;15.338;2023-09-19T00:01:42;94541.91;;;17.14;85.71
47636;BME280;33364;50.766;15.338;2023-09-19T00:04:12;94536.47;;;17.10;85.45
47636;BME280;33364;50.766;15.338;2023-09-19T00:06:38;94535.69;;;17.22;84.89
47636;BME280;33364;50.766;15.338;2023-09-19T00:09:04;94530.97;;;17.31;84.48
47636;BME280;33364;50.766;15.338;2023-09-19T00:11:30;94533.19;;;17.29;84.56
47636;BME280;33364;50.766;15.338;2023-09-19T00:13:57;94536.91;;;17.12;84.91
47636;BME280;33364;50.766;15.338;2023-09-19T00:16:25;94533.81;;;16.98;85.13
47636;BME280;33364;50.766;15.338;2023-09-19T00:18:51;94532.28;;;16.97;85.54
47636;BME280;33364;50.766;15.338;2023-09-19T00:21:18;94535.47;;;17.03;85.13
47636;BME280;33364;50.766;15.338;2023-09-19T00:23:46;94539.03;;;17.07;83.87
47636;BME280;33364;50.766;15.338;2023-09-19T00:26:12;94547.50;;;16.97;84.34
47636;BME280;33364;50.766;15.338;2023-09-19T00:28:38;94544.28;;;16.91;85.12
47636;BME280;33364;50.766;15.338;2023-09-19T00:31:07;94534.72;;;17.02;84.84
47636;BME280;33364;50.766;15.338;2023-09-19T00:33:34;94530.81;;;16.87;84.71
47636;BME280;33364;50.766;15.338;2023-09-19T00:36:00;94524.59;;;16.71;85.76
47636;BME280;33364;50.766;15.338;2023-09-19T00:38:30;94523.03;;;16.46;86.15
47636;BME280;33364;50.766;15.338;2023-09-19T00:40:57;94531.03;;;16.58;86.25
47636;BME280;33364;50.766;15.338;2023-09-19T00:43:23;94526.25;;;16.52;85.68
47636;BME280;33364;50.766;15.338;2023-09-19T00:45:51;94534.13;;;16.36;86.73
47636;BME280;33364;50.766;15.338;2023-09-19T00:48:18;94539.69;;;16.43;86.41
47636;BME280;33364;50.766;15.338;2023-09-19T00:50:46;94542.13;;;16.36;86.24
47636;BME280;33364;50.766;15.338;2023-09-19T00:53:19;94547.00;;;16.46;85.37
47636;BME280;33364;50.766;15.338;2023-09-19T00:55:46;94552.78;;;16.48;85.34
47636;BME280;33364;50.766;15.338;2023-09-19T00:58:14;94558.00;;;16.57;84.88
47636;BME280;33364;50.766;15.338;2023-09-19T01:00:41;94553.94;;;16.59;84.30
47636;BME280;33364;50.766;15.338;2023-09-19T01:03:11;94550.13;;;16.48;85.22
47636;BME280;33364;50.766;15.338;2023-09-19T01:05:38;94550.34;;;16.43;85.57
47636;BME280;33364;50.766;15.338;2023-09-19T01:08:05;94564.09;;;16.45;84.85
47636;BME280;33364;50.766;15.338;2023-09-19T01:10:32;94556.31;;;16.40;85.27
47636;BME280;33364;50.766;15.338;2023-09-19T01:20:46;94551.56;;;16.45;84.28
47636;BME280;33364;50.766;15.338;2023-09-19T01:23:26;94549.78;;;16.37;85.62
47636;BME280;33364;50.766;15.338;2023-09-19T01:26:04;94557.53;;;16.30;86.18
47636;BME280;33364;50.766;15.338;2023-09-19T01:29:17;94558.31;;;16.31;85.95
47636;BME280;33364;50.766;15.338;2023-09-19T01:31:57;94547.66;;;16.31;85.84
47636;BME280;33364;50.766;15.338;2023-09-19T01:34:27;94548.88;;;16.21;86.15
47636;BME280;33364;50.766;15.338;2023-09-19T01:36:52;94538.13;;;16.42;85.42
47636;BME280;33364;50.766;15.338;2023-09-19T01:39:18;94547.56;;;16.39;85.71
47636;BME280;33364;50.766;15.338;2023-09-19T01:41:54;94541.91;;;16.41;85.73
47636;BME280;33364;50.766;15.338;2023-09-19T01:44:40;94547.56;;;16.27;86.27
47636;BME280;33364;50.766;15.338;2023-09-19T01:47:22;94531.88;;;16.26;86.63
47636;BME280;33364;50.766;15.338;2023-09-19T01:52:40;94532.00;;;16.29;86.24
47636;BME280;33364;50.766;15.338;2023-09-19T01:55:10;94523.44;;;16.24;86.30
47636;BME280;33364;50.766;15.338;2023-09-19T01:57:57;94526.78;;;16.21;86.80
47636;BME280;33364;50.766;15.338;2023-09-19T02:00:27;94521.91;;;16.35;85.66
47636;BME280;33364;50.766;15.338;2023-09-19T02:02:56;94537.88;;;16.35;85.45
47636;BME280;33364;50.766;15.338;2023-09-19T02:05:25;94532.91;;;16.45;85.05
47636;BME280;33364;50.766;15.338;2023-09-19T02:07:53;94524.59;;;16.47;84.58
47636;BME280;33364;50.766;15.338;2023-09-19T02:10:20;94519.47;;;16.54;84.34
47636;BME280;33364;50.766;15.338;2023-09-19T02:12:45;94526.00;;;16.44;84.89
47636;BME280;33364;50.766;15.338;2023-09-19T02:15:12;94529.91;;;16.47;84.64
47636;BME280;33364;50.766;15.338;2023-09-19T02:17:38;94539.47;;;16.60;84.17
47636;BME280;33364;50.766;15.338;2023-09-19T02:20:04;94542.84;;;16.69;84.02
47636;BME280;33364;50.766;15.338;2023-09-19T02:22:43;94534.28;;;16.64;84.33
47636;BME280;33364;50.766;15.338;2023-09-19T02:25:10;94543.28;;;16.59;84.61
47636;BME280;33364;50.766;15.338;2023-09-19T02:27:36;94546.69;;;16.47;85.02
47636;BME280;33364;50.766;15.338;2023-09-19T02:30:04;94537.66;;;16.40;85.49
47636;BME280;33364;50.766;15.338;2023-09-19T02:32:31;94534.34;;;16.31;85.90
47636;BME280;33364;50.766;15.338;2023-09-19T02:34:57;94531.56;;;16.39;86.00
47636;BME280;33364;50.766;15.338;2023-09-19T02:37:26;94534.91;;;16.48;85.44
47636;BME280;33364;50.766;15.338;2023-09-19T02:39:52;94540.34;;;16.40;85.96
47636;BME280;33364;50.766;15.338;2023-09-19T02:42:17;94543.69;;;16.49;85.16
47636;BME280;33364;50.766;15.338;2023-09-19T02:44:43;94540.41;;;16.64;84.35
47636;BME280;33364;50.766;15.338;2023-09-19T02:47:12;94537.72;;;16.64;84.37
47636;BME280;33364;50.766;15.338;2023-09-19T02:49:38;94544.34;;;16.46;85.26
47636;BME280;33364;50.766;15.338;2023-09-19T02:52:03;94540.78;;;16.42;85.55
47636;BME280;33364;50.766;15.338;2023-09-19T02:54:30;94545.31;;;16.29;86.42
47636;BME280;33364;50.766;15.338;2023-09-19T02:56:55;94548.97;;;16.25;86.56
47636;BME280;33364;50.766;15.338;2023-09-19T02:59:21;94541.22;;;16.32;86.14
47636;BME280;33364;50.766;15.338;2023-09-19T03:01:47;94533.25;;;16.44;85.11
47636;BME280;33364;50.766;15.338;2023-09-19T03:04:14;94543.56;;;16.45;85.32
47636;BME280;33364;50.766;15.338;2023-09-19T03:06:45;94534.22;;;16.39;85.92
47636;BME280;33364;50.766;15.338;2023-09-19T03:09:11;94533.66;;;16.34;85.61
47636;BME280;33364;50.766;15.338;2023-09-19T03:11:38;94524.78;;;16.30;85.05
47636;BME280;33364;50.766;15.338;2023-09-19T03:14:05;94527.34;;;16.26;85.20
47636;BME280;33364;50.766;15.338;2023-09-19T03:16:31;94519.78;;;16.40;84.57
47636;BME280;33364;50.766;15.338;2023-09-19T03:18:58;94539.22;;;16.41;84.25
47636;BME280;33364;50.766;15.338;2023-09-19T03:21:25;94538.44;;;16.40;84.80
47636;BME280;33364;50.766;15.338;2023-09-19T03:23:51;94541.00;;;16.37;85.22
47636;BME280;33364;50.766;15.338;2023-09-19T03:26:17;94535.22;;;16.23;85.89
47636;BME280;33364;50.766;15.338;2023-09-19T03:28:43;94541.31;;;16.23;86.11
47636;BME280;33364;50.766;15.338;2023-09-19T03:31:09;94533.88;;;16.29;85.29
47636;BME280;33364;50.766;15.338;2023-09-19T03:33:36;94533.19;;;16.20;85.63
47636;BME280;33364;50.766;15.338;2023-09-19T03:36:03;94539.41;;;16.12;86.43
47636;BME280;33364;50.766;15.338;2023-09-19T03:38:30;94543.66;;;16.25;85.87
47636;BME280;33364;50.766;15.338;2023-09-19T03:40:56;94535.91;;;16.32;85.90
47636;BME280;33364;50.766;15.338;2023-09-19T03:43:23;94539.34;;;16.32;85.69
47636;BME280;33364;50.766;15.338;2023-09-19T03:45:48;94540.13;;;16.33;85.81
47636;BME280;33364;50.766;15.338;2023-09-19T03:48:14;94543.44;;;16.30;85.50
47636;BME280;33364;50.766;15.338;2023-09-19T03:50:40;94537.66;;;16.28;85.31
47636;BME280;33364;50.766;15.338;2023-09-19T03:53:06;94541.31;;;16.23;85.90
47636;BME280;33364;50.766;15.338;2023-09-19T03:55:34;94548.88;;;16.21;85.81
47636;BME280;33364;50.766;15.338;2023-09-19T03:58:05;94551.56;;;16.33;84.97
47636;BME280;33364;50.766;15.338;2023-09-19T04:00:31;94552.34;;;16.46;84.33
47636;BME280;33364;50.766;15.338;2023-09-19T04:02:58;94543.69;;;16.49;84.49
47636;BME280;33364;50.766;15.338;2023-09-19T04:05:24;94538.66;;;16.35;85.19
47636;BME280;33364;50.766;15.338;2023-09-19T04:07:50;94539.19;;;16.29;85.61
47636;BME280;33364;50.766;15.338;2023-09-19T04:10:16;94543.47;;;16.42;84.87
47636;BME280;33364;50.766;15.338;2023-09-19T04:12:56;94539.34;;;16.44;85.27
47636;BME280;33364;50.766;15.338;2023-09-19T04:15:22;94542.13;;;16.36;85.02
47636;BME280;33364;50.766;15.338;2023-09-19T04:17:49;94557.53;;;16.30;85.38
47636;BME280;33364;50.766;15.338;2023-09-19T04:20:18;94551.78;;;16.40;84.81
47636;BME280;33364;50.766;15.338;2023-09-19T04:22:51;94560.34;;;16.46;84.97
47636;BME280;33364;50.766;15.338;2023-09-19T04:25:16;94560.22;;;16.42;85.10
47636;BME280;33364;50.766;15.338;2023-09-19T04:27:44;94569.22;;;16.38;85.08
47636;BME280;33364;50.766;15.338;2023-09-19T04:30:09;94583.19;;;16.23;85.60
47636;BME280;33364;50.766;15.338;2023-09-19T04:32:40;94575.41;;;16.18;86.05
47636;BME280;33364;50.766;15.338;2023-09-19T04:35:07;94583.38;;;16.18;86.22
47636;BME280;33364;50.766;15.338;2023-09-19T04:37:40;94589.63;;;16.22;85.71
47636;BME280;33364;50.766;15.338;2023-09-19T04:40:08;94584.50;;;16.29;85.35
47636;BME280;33364;50.766;15.338;2023-09-19T04:42:41;94581.09;;;16.28;85.44
47636;BME280;33364;50.766;15.338;2023-09-19T04:45:07;94593.41;;;16.33;85.36
47636;BME280;33364;50.766;15.338;2023-09-19T04:47:36;94598.19;;;16.39;85.29
47636;BME280;33364;50.766;15.338;2023-09-19T04:50:13;94595.56;;;16.19;85.98
47636;BME280;33364;50.766;15.338;2023-09-19T04:52:43;94600.69;;;16.24;85.76
47636;BME280;33364;50.766;15.338;2023-09-19T04:55:13;94597.97;;;16.32;85.36
47636;BME280;33364;50.766;15.338;2023-09-19T04:57:43;94599.19;;;16.35;85.16
47636;BME280;33364;50.766;15.338;2023-09-19T05:00:12;94602.09;;;16.42;84.91
47636;BME280;33364;50.766;15.338;2023-09-19T05:02:38;94610.97;;;16.46;84.68
47636;BME280;33364;50.766;15.338;2023-09-19T05:05:09;94600.09;;;16.39;84.91
47636;BME280;33364;50.766;15.338;2023-09-19T05:07:45;94606.53;;;16.38;84.79
47636;BME280;33364;50.766;15.338;2023-09-19T05:10:11;94600.63;;;16.44;85.08
47636;BME280;33364;50.766;15.338;2023-09-19T05:12:41;94605.63;;;16.46;84.47
47636;BME280;33364;50.766;15.338;2023-09-19T05:15:07;94604.50;;;16.35;84.95
47636;BME280;33364;50.766;15.338;2023-09-19T05:17:34;94609.41;;;16.33;85.36
47636;BME280;33364;50.766;15.338;2023-09-19T05:20:03;94613.53;;;16.42;84.82
47636;BME280;33364;50.766;15.338;2023-09-19T05:22:39;94610.41;;;16.40;85.23
47636;BME280;33364;50.766;15.338;2023-09-19T05:25:06;94621.06;;;16.28;85.81
47636;BME280;33364;50.766;15.338;2023-09-19T05:27:33;94620.59;;;16.26;86.01
47636;BME280;33364;50.766;15.338;2023-09-19T05:29:59;94625.28;;;16.41;85.15
47636;BME280;33364;50.766;15.338;2023-09-19T05:32:25;94616.09;;;16.39;85.20
47636;BME280;33364;50.766;15.338;2023-09-19T05:34:51;94623.56;;;16.25;85.78
47636;BME280;33364;50.766;15.338;2023-09-19T05:37:22;94629.81;;;16.29;85.60
47636;BME280;33364;50.766;15.338;2023-09-19T05:39:49;94627.50;;;16.39;85.32
47636;BME280;33364;50.766;15.338;2023-09-19T05:42:15;94629.63;;;16.46;84.52
47636;BME280;33364;50.766;15.338;2023-09-19T05:44:41;94637.63;;;16.46;84.54
47636;BME280;33364;50.766;15.338;2023-09-19T05:47:07;94637.41;;;16.51;83.97
47636;BME280;33364;50.766;15.338;2023-09-19T05:49:37;94634.53;;;16.56;84.49
47636;BME280;33364;50.766;15.338;2023-09-19T05:52:05;94632.72;;;16.36;85.45
47636;BME280;33364;50.766;15.338;2023-09-19T05:54:32;94638.25;;;16.31;85.76
47636;BME280;33364;50.766;15.338;2023-09-19T05:57:00;94639.28;;;16.38;84.82
47636;BME280;33364;50.766;15.338;2023-09-19T05:59:27;94645.41;;;16.39;85.10
47636;BME280;33364;50.766;15.338;2023-09-19T06:01:53;94639.28;;;16.38;85.49
47636;BME280;33364;50.766;15.338;2023-09-19T06:04:18;94639.56;;;16.25;85.63
47636;BME280;33364;50.766;15.338;2023-09-19T06:06:45;94638.66;;;16.21;85.83
47636;BME280;33364;50.766;15.338;2023-09-19T06:09:10;94633.59;;;16.28;85.97
47636;BME280;33364;50.766;15.338;2023-09-19T06:11:36;94638.56;;;16.29;85.82
47636;BME280;33364;50.766;15.338;2023-09-19T06:14:03;94636.47;;;16.23;86.22
47636;BME280;33364;50.766;15.338;2023-09-19T06:16:30;94636.22;;;16.16;86.87
47636;BME280;33364;50.766;15.338;2023-09-19T06:18:57;94646.59;;;16.09;86.72
47636;BME280;33364;50.766;15.338;2023-09-19T06:21:26;94643.03;;;16.04;87.14
47636;BME280;33364;50.766;15.338;2023-09-19T06:23:53;94647.28;;;16.05;86.84
47636;BME280;33364;50.766;15.338;2023-09-19T06:26:19;94647.28;;;16.05;87.09
47636;BME280;33364;50.766;15.338;2023-09-19T06:28:45;94643.94;;;16.09;86.72
47636;BME280;33364;50.766;15.338;2023-09-19T06:31:11;94652.81;;;16.13;86.16
47636;BME280;33364;50.766;15.338;2023-09-19T06:33:38;94646.47;;;16.26;85.91
47636;BME280;33364;50.766;15.338;2023-09-19T06:36:07;94648.22;;;16.22;85.67
47636;BME280;33364;50.766;15.338;2023-09-19T06:38:33;94640.22;;;16.22;86.10
47636;BME280;33364;50.766;15.338;2023-09-19T06:41:03;94650.69;;;16.27;86.10
47636;BME280;33364;50.766;15.338;2023-09-19T06:43:33;94644.47;;;16.35;85.99
47636;BME280;33364;50.766;15.338;2023-09-19T06:46:00;94659.16;;;16.41;85.67
47636;BME280;33364;50.766;15.338;2023-09-19T06:48:26;94660.72;;;16.42;85.20
47636;BME280;33364;50.766;15.338;2023-09-19T06:50:56;94666.84;;;16.42;85.31
47636;BME280;33364;50.766;15.338;2023-09-19T06:53:24;94669.19;;;16.44;85.22
47636;BME280;33364;50.766;15.338;2023-09-19T06:55:50;94671.38;;;16.42;85.46
47636;BME280;33364;50.766;15.338;2023-09-19T06:58:16;94672.75;;;16.48;84.58
47636;BME280;33364;50.766;15.338;2023-09-19T07:00:42;94679.06;;;16.43;84.25
47636;BME280;33364;50.766;15.338;2023-09-19T07:03:08;94676.72;;;16.42;84.26
47636;BME280;33364;50.766;15.338;2023-09-19T07:05:38;94694.13;;;16.39;84.20
47636;BME280;33364;50.766;15.338;2023-09-19T07:08:05;94690.03;;;16.42;83.72
47636;BME280;33364;50.766;15.338;2023-09-19T07:10:32;94696.22;;;16.34;84.63
47636;BME280;33364;50.766;15.338;2023-09-19T07:12:59;94701.22;;;16.35;84.51
47636;BME280;33364;50.766;15.338;2023-09-19T07:15:26;94704.38;;;16.17;85.04
47636;BME280;33364;50.766;15.338;2023-09-19T07:17:53;94713.28;;;15.79;86.76
47636;BME280;33364;50.766;15.338;2023-09-19T07:20:20;94714.56;;;16.15;85.74
47636;BME280;33364;50.766;15.338;2023-09-19T07:22:46;94705.88;;;16.05;85.40
47636;BME280;33364;50.766;15.338;2023-09-19T07:25:13;94713.72;;;16.23;84.52
47636;BME280;33364;50.766;15.338;2023-09-19T07:27:41;94715.06;;;16.29;84.30
47636;BME280;33364;50.766;15.338;2023-09-19T07:30:07;94719.50;;;16.25;84.95
47636;BME280;33364;50.766;15.338;2023-09-19T07:32:34;94719.19;;;16.26;85.38
47636;BME280;33364;50.766;15.338;2023-09-19T07:35:02;94724.19;;;16.28;85.58
47636;BME280;33364;50.766;15.338;2023-09-19T07:37:29;94732.97;;;16.28;85.08
47636;BME280;33364;50.766;15.338;2023-09-19T07:40:05;94729.13;;;16.38;84.47
47636;BME280;33364;50.766;15.338;2023-09-19T07:42:37;94743.34;;;16.42;84.14
47636;BME280;33364;50.766;15.338;2023-09-19T07:45:09;94740.16;;;16.48;84.60
47636;BME280;33364;50.766;15.338;2023-09-19T07:47:44;94745.34;;;16.45;84.19
47636;BME280;33364;50.766;15.338;2023-09-19T07:50:10;94742.72;;;16.57;84.38
47636;BME280;33364;50.766;15.338;2023-09-19T07:52:37;94745.41;;;16.57;84.59
47636;BME280;33364;50.766;15.338;2023-09-19T07:55:06;94744.38;;;16.70;83.02
47636;BME280;33364;50.766;15.338;2023-09-19T07:57:36;94759.50;;;16.78;82.21
47636;BME280;33364;50.766;15.338;2023-09-19T08:00:03;94751.50;;;16.78;81.26
47636;BME280;33364;50.766;15.338;2023-09-19T08:02:36;94754.69;;;16.72;81.53
47636;BME280;33364;50.766;15.338;2023-09-19T08:05:06;94752.38;;;16.70;81.29
47636;BME280;33364;50.766;15.338;2023-09-19T08:07:36;94754.66;;;16.60;80.32
47636;BME280;33364;50.766;15.338;2023-09-19T08:10:06;94760.28;;;16.58;80.34
47636;BME280;33364;50.766;15.338;2023-09-19T08:12:36;94764.16;;;16.81;80.66
47636;BME280;33364;50.766;15.338;2023-09-19T08:15:05;94769.97;;;16.83;79.67
47636;BME280;33364;50.766;15.338;2023-09-19T08:17:35;94781.50;;;16.75;80.28
47636;BME280;33364;50.766;15.338;2023-09-19T08:20:01;94774.19;;;16.84;79.69
47636;BME280;33364;50.766;15.338;2023-09-19T08:22:28;94773.03;;;16.73;78.55
47636;BME280;33364;50.766;15.338;2023-09-19T08:24:54;94770.84;;;16.75;79.38
47636;BME280;33364;50.766;15.338;2023-09-19T08:27:22;94782.03;;;16.69;79.28
47636;BME280;33364;50.766;15.338;2023-09-19T08:29:52;94777.13;;;17.04;77.54
47636;BME280;33364;50.766;15.338;2023-09-19T08:32:18;94776.59;;;17.10;77.61
47636;BME280;33364;50.766;15.338;2023-09-19T08:34:49;94773.25;;;17.01;77.64
47636;BME280;33364;50.766;15.338;2023-09-19T08:37:17;94764.00;;;16.86;76.26
47636;BME280;33364;50.766;15.338;2023-09-19T08:39:44;94777.47;;;17.14;77.04
47636;BME280;33364;50.766;15.338;2023-09-19T08:42:11;94777.66;;;17.42;74.94
47636;BME280;33364;50.766;15.338;2023-09-19T08:44:38;94777.81;;;17.70;75.48
47636;BME280;33364;50.766;15.338;2023-09-19T08:47:10;94796.34;;;17.54;76.15
47636;BME280;33364;50.766;15.338;2023-09-19T08:52:27;94789.16;;;17.79;73.32
47636;BME280;33364;50.766;15.338;2023-09-19T08:54:58;94799.34;;;17.53;73.40
47636;BME280;33364;50.766;15.338;2023-09-19T08:57:28;94794.22;;;17.36;71.99
47636;BME280;33364;50.766;15.338;2023-09-19T08:59:55;94788.81;;;17.81;72.20
47636;BME280;33364;50.766;15.338;2023-09-19T09:02:22;94791.81;;;17.79;70.85
47636;BME280;33364;50.766;15.338;2023-09-19T09:04:49;94803.59;;;17.66;72.36
47636;BME280;33364;50.766;15.338;2023-09-19T09:07:16;94801.50;;;17.96;71.79
47636;BME280;33364;50.766;15.338;2023-09-19T09:09:42;94800.59;;;18.16;70.89
47636;BME280;33364;50.766;15.338;2023-09-19T09:12:12;94805.84;;;17.64;70.55
47636;BME280;33364;50.766;15.338;2023-09-19T09:14:39;94807.69;;;17.51;70.56
47636;BME280;33364;50.766;15.338;2023-09-19T09:17:05;94812.13;;;17.47;71.83
47636;BME280;33364;50.766;15.338;2023-09-19T09:19:32;94810.84;;;17.65;70.48
47636;BME280;33364;50.766;15.338;2023-09-19T09:22:06;94809.09;;;17.82;72.42
47636;BME280;33364;50.766;15.338;2023-09-19T09:24:33;94800.81;;;17.99;71.68
47636;BME280;33364;50.766;15.338;2023-09-19T09:27:03;94805.25;;;18.19;71.72
47636;BME280;33364;50.766;15.338;2023-09-19T09:29:47;94808.06;;;18.63;69.88
47636;BME280;33364;50.766;15.338;2023-09-19T09:32:19;94803.84;;;18.62;68.98
47636;BME280;33364;50.766;15.338;2023-09-19T09:34:49;94810.19;;;18.69;68.80
47636;BME280;33364;50.766;15.338;2023-09-19T09:37:16;94804.75;;;18.41;67.42
47636;BME280;33364;50.766;15.338;2023-09-19T09:39:56;94807.19;;;18.46;67.45
47636;BME280;33364;50.766;15.338;2023-09-19T09:42:32;94813.25;;;18.55;68.68
47636;BME280;33364;50.766;15.338;2023-09-19T09:45:20;94818.59;;;18.31;69.10
47636;BME280;33364;50.766;15.338;2023-09-19T09:48:00;94822.56;;;17.97;69.38
47636;BME280;33364;50.766;15.338;2023-09-19T09:50:30;94808.38;;;18.09;69.51
47636;BME280;33364;50.766;15.338;2023-09-19T09:53:24;94824.28;;;18.30;68.55
47636;BME280;33364;50.766;15.338;2023-09-19T09:56:08;94817.50;;;18.72;66.62
47636;BME280;33364;50.766;15.338;2023-09-19T09:58:50;94823.38;;;18.90;65.77
47636;BME280;33364;50.766;15.338;2023-09-19T10:01:19;94812.28;;;19.63;64.35
47636;BME280;33364;50.766;15.338;2023-09-19T10:03:46;94812.50;;;20.05;63.63
47636;BME280;33364;50.766;15.338;2023-09-19T10:06:17;94817.63;;;20.80;61.62
47636;BME280;33364;50.766;15.338;2023-09-19T10:11:31;94823.25;;;19.89;61.52
47636;BME280;33364;50.766;15.338;2023-09-19T10:14:00;94823.34;;;19.46;62.07
47636;BME280;33364;50.766;15.338;2023-09-19T10:16:30;94818.72;;;18.87;64.24
47636;BME280;33364;50.766;15.338;2023-09-19T10:19:00;94822.97;;;18.24;66.81
47636;BME280;33364;50.766;15.338;2023-09-19T10:21:28;94817.91;;;18.46;66.10
47636;BME280;33364;50.766;15.338;2023-09-19T10:23:58;94827.72;;;18.54;68.42
47636;BME280;33364;50.766;15.338;2023-09-19T10:26:27;94821.97;;;18.16;65.06
47636;BME280;33364;50.766;15.338;2023-09-19T10:28:57;94823.44;;;18.13;66.96
47636;BME280;33364;50.766;15.338;2023-09-19T10:31:27;94825.41;;;18.29;66.71
47636;BME280;33364;50.766;15.338;2023-09-19T10:33:55;94832.34;;;17.81;67.00
47636;BME280;33364;50.766;15.338;2023-09-19T10:36:24;94832.78;;;17.95;66.86
47636;BME280;33364;50.766;15.338;2023-09-19T10:38:54;94828.44;;;17.91;66.39
47636;BME280;33364;50.766;15.338;2023-09-19T10:41:22;94833.44;;;18.04;65.46
47636;BME280;33364;50.766;15.338;2023-09-19T10:43:48;94831.66;;;18.08;65.58
47636;BME280;33364;50.766;15.338;2023-09-19T10:46:14;94827.53;;;18.11;65.85
47636;BME280;33364;50.766;15.338;2023-09-19T10:48:41;94845.03;;;17.84;66.93
47636;BME280;33364;50.766;15.338;2023-09-19T10:51:12;94846.38;;;17.90;66.47
47636;BME280;33364;50.766;15.338;2023-09-19T10:53:44;94846.25;;;17.87;66.80
47636;BME280;33364;50.766;15.338;2023-09-19T10:56:18;94844.00;;;17.64;66.41
47636;BME280;33364;50.766;15.338;2023-09-19T10:58:45;94836.66;;;17.73;66.88
47636;BME280;33364;50.766;15.338;2023-09-19T11:01:11;94842.13;;;17.77;67.41
47636;BME280;33364;50.766;15.338;2023-09-19T11:03:38;94841.47;;;17.80;70.14
47636;BME280;33364;50.766;15.338;2023-09-19T11:06:18;94840.00;;;17.83;70.91
47636;BME280;33364;50.766;15.338;2023-09-19T11:08:54;94838.47;;;18.06;70.06
47636;BME280;33364;50.766;15.338;2023-09-19T11:11:40;94835.34;;;18.16;68.85
47636;BME280;33364;50.766;15.338;2023-09-19T11:30:38;94837.44;;;18.10;70.73
47636;BME280;33364;50.766;15.338;2023-09-19T11:49:16;94831.88;;;17.79;74.36
47636;BME280;33364;50.766;15.338;2023-09-19T11:51:46;94830.31;;;17.66;73.85
47636;BME280;33364;50.766;15.338;2023-09-19T11:54:14;94826.44;;;17.63;73.70
47636;BME280;33364;50.766;15.338;2023-09-19T11:56:51;94832.59;;;17.43;74.46
47636;BME280;33364;50.766;15.338;2023-09-19T11:59:26;94838.41;;;17.57;74.47
47636;BME280;33364;50.766;15.338;2023-09-19T12:02:05;94839.03;;;17.75;74.70
47636;BME280;33364;50.766;15.338;2023-09-19T12:04:35;94844.03;;;17.89;74.60
47636;BME280;33364;50.766;15.338;2023-09-19T12:07:08;94845.03;;;17.96;74.92
47636;BME280;33364;50.766;15.338;2023-09-19T12:09:48;94839.34;;;17.86;75.18
47636;BME280;33364;50.766;15.338;2023-09-19T12:12:26;94834.00;;;18.34;73.80
47636;BME280;33364;50.766;15.338;2023-09-19T12:15:00;94840.19;;;18.63;71.66
47636;BME280;33364;50.766;15.338;2023-09-19T12:17:39;94838.41;;;19.50;68.21
47636;BME280;33364;50.766;15.338;2023-09-19T12:20:08;94833.03;;;19.66;66.50
47636;BME280;33364;50.766;15.338;2023-09-19T12:22:42;94832.25;;;19.65;64.45
47636;BME280;33364;50.766;15.338;2023-09-19T12:25:09;94838.28;;;19.47;62.88
47636;BME280;33364;50.766;15.338;2023-09-19T12:27:50;94843.25;;;19.60;62.81
47636;BME280;33364;50.766;15.338;2023-09-19T12:30:19;94841.28;;;19.29;64.27
47636;BME280;33364;50.766;15.338;2023-09-19T12:32:46;94839.13;;;19.07;63.80
47636;BME280;33364;50.766;15.338;2023-09-19T12:35:30;94839.97;;;18.95;64.81
47636;BME280;33364;50.766;15.338;2023-09-19T12:38:02;94834.09;;;18.78;65.22
47636;BME280;33364;50.766;15.338;2023-09-19T12:40:29;94833.97;;;19.14;65.15
47636;BME280;33364;50.766;15.338;2023-09-19T12:42:59;94827.44;;;18.99;64.35
47636;BME280;33364;50.766;15.338;2023-09-19T12:45:26;94830.63;;;19.61;63.16
47636;BME280;33364;50.766;15.338;2023-09-19T12:48:18;94824.84;;;20.25;63.61
47636;BME280;33364;50.766;15.338;2023-09-19T12:51:10;94819.31;;;20.69;62.80
47636;BME280;33364;50.766;15.338;2023-09-19T12:53:46;94813.72;;;20.96;60.17
47636;BME280;33364;50.766;15.338;2023-09-19T12:56:16;94811.91;;;21.20;58.50
47636;BME280;33364;50.766;15.338;2023-09-19T13:01:16;94807.16;;;21.55;56.70
47636;BME280;33364;50.766;15.338;2023-09-19T13:03:43;94805.09;;;21.68;56.98
47636;BME280;33364;50.766;15.338;2023-09-19T13:06:08;94815.66;;;21.57;56.94
47636;BME280;33364;50.766;15.338;2023-09-19T13:08:37;94816.31;;;21.51;55.59
47636;BME280;33364;50.766;15.338;2023-09-19T13:11:16;94821.84;;;21.61;55.38
47636;BME280;33364;50.766;15.338;2023-09-19T13:17:00;94816.84;;;20.79;57.40
47636;BME280;33364;50.766;15.338;2023-09-19T13:22:00;94812.53;;;20.75;57.42
47636;BME280;33364;50.766;15.338;2023-09-19T13:24:26;94811.81;;;21.16;56.32
47636;BME280;33364;50.766;15.338;2023-09-19T13:26:53;94800.56;;;21.11;55.70
47636;BME280;33364;50.766;15.338;2023-09-19T13:29:19;94811.88;;;21.39;57.44
47636;BME280;33364;50.766;15.338;2023-09-19T13:31:54;94807.78;;;21.06;57.30
47636;BME280;33364;50.766;15.338;2023-09-19T13:34:20;94802.28;;;21.19;55.89
47636;BME280;33364;50.766;15.338;2023-09-19T13:36:46;94801.28;;;21.27;56.44
47636;BME280;33364;50.766;15.338;2023-09-19T13:39:15;94796.38;;;20.71;57.33
47636;BME280;33364;50.766;15.338;2023-09-19T13:41:42;94802.66;;;21.17;57.17
47636;BME280;33364;50.766;15.338;2023-09-19T13:44:09;94797.41;;;21.24;56.87
47636;BME280;33364;50.766;15.338;2023-09-19T13:46:36;94793.88;;;21.20;55.10
47636;BME280;33364;50.766;15.338;2023-09-19T13:49:03;94794.22;;;20.99;55.72
47636;BME280;33364;50.766;15.338;2023-09-19T13:51:30;94799.97;;;20.98;56.02
47636;BME280;33364;50.766;15.338;2023-09-19T13:53:56;94798.47;;;20.81;55.62
47636;BME280;33364;50.766;15.338;2023-09-19T13:56:22;94800.44;;;20.84;54.40
47636;BME280;33364;50.766;15.338;2023-09-19T13:58:48;94803.81;;;21.00;54.41